Time;durP1;ratioP1;P1;durP2;ratioP2;P2;SDS_P1;SDS_P2;PMS_P1;PMS_P2;Temp;Humidity;BMP_temperature;BMP_pressure;BME280_temperature;BME280_humidity;BME280_pressure;Samples;Min_cycle;Max_cycle;Signal;HPM_P1;HPM_P2
2022/12/29 00:01:13;;;;;;;3.20;1.60;;;;;;;10.10;100.00;67888.16;4972979;28;20423;-83
2022/12/29 00:03:39;;;;;;;5.53;1.95;;;;;;;10.11;100.00;67889.28;4980163;28;20042;-82
2022/12/29 00:06:04;;;;;;;3.30;1.85;;;;;;;;;;4990340;28;20146;-82
2022/12/29 00:08:41;;;;;;;2.40;1.67;;;;;;;;;;4982442;28;20038;-82
2022/12/29 00:11:11;;;;;;;2.88;1.73;;;;;;;10.17;100.00;67896.06;4994422;28;20077;-82
2022/12/29 00:16:21;;;;;;;3.05;1.60;;;;;;;10.17;100.00;67896.06;4991981;28;20103;-83
2022/12/29 00:18:47;;;;;;;2.65;1.80;;;;;;;10.20;100.00;67898.34;4991813;28;20046;-84
2022/12/29 00:35:09;;;;;;;2.20;1.38;;;;;;;10.11;100.00;67886.06;4980694;28;20070;-83
2022/12/29 00:45:58;;;;;;;2.90;1.90;;;;;;;10.17;100.00;67896.06;4981433;28;20053;-82
2022/12/29 00:51:08;;;;;;;2.33;1.65;;;;;;;10.19;100.00;67897.78;4972813;28;20177;-82
2022/12/29 00:53:34;;;;;;;3.03;1.40;;;;;;;10.19;100.00;67897.78;4984826;28;20117;-83
2022/12/29 00:56:00;;;;;;;2.05;1.40;;;;;;;10.17;100.00;67898.16;4983324;28;20042;-82
2022/12/29 00:58:30;;;;;;;2.58;1.50;;;;;;;10.15;100.00;67896.47;4992713;28;20035;-83
2022/12/29 01:01:07;;;;;;;2.05;1.38;;;;;;;10.13;100.00;67891.53;4970559;28;20458;-83
2022/12/29 01:03:34;;;;;;;3.35;1.50;;;;;;;10.11;100.00;67889.28;4982344;28;20043;-82
2022/12/29 01:06:04;;;;;;;2.38;1.10;;;;;;;10.07;100.00;67887.41;4972934;28;20438;-83
2022/12/29 01:08:29;;;;;;;1.80;1.33;;;;;;;10.05;100.00;67882.47;4985417;28;20777;-82
2022/12/29 01:11:05;;;;;;;1.90;1.00;;;;;;;10.01;100.00;67880.00;4975530;28;20042;-82
2022/12/29 01:13:31;;;;;;;1.70;1.10;;;;;;;9.95;100.00;67871.13;4988050;28;20120;-82
2022/12/29 01:15:57;;;;;;;1.20;0.80;;;;;;;9.89;100.00;67864.31;4974705;28;20070;-83
2022/12/29 01:18:23;;;;;;;1.33;1.00;;;;;;;9.88;100.00;67865.84;4997142;28;20042;-84
2022/12/29 01:20:49;;;;;;;1.25;0.80;;;;;;;9.85;100.00;67863.00;4992583;28;20426;-82
2022/12/29 01:23:14;;;;;;;2.70;1.40;;;;;;;9.85;100.00;67859.78;5000879;28;20075;-83
2022/12/29 01:25:40;;;;;;;2.72;1.75;;;;;;;9.82;100.00;67856.38;5006403;28;20030;-82
2022/12/29 01:28:08;;;;;;;3.65;2.30;;;;;;;9.81;100.00;67857.91;4989590;28;20144;-82
2022/12/29 01:30:36;;;;;;;3.53;2.70;;;;;;;9.78;100.00;67854.50;4981038;28;20035;-83
2022/12/29 01:33:02;;;;;;;3.78;3.20;;;;;;;9.73;100.00;67848.84;4983371;28;20042;-83
2022/12/29 01:35:27;;;;;;;3.78;3.30;;;;;;;9.69;100.00;67842.75;4986544;28;20042;-83
2022/12/29 01:37:53;;;;;;;4.20;3.80;;;;;;;9.66;100.00;67842.03;5001578;28;20138;-83
2022/12/29 01:40:19;;;;;;;5.45;3.45;;;;;;;9.63;100.00;67835.97;5003376;28;20038;-82
2022/12/29 01:42:44;;;;;;;5.05;4.57;;;;;;;9.60;100.00;67832.00;4991244;28;20045;-82
2022/12/29 01:45:14;;;;;;;6.97;4.70;;;;;;;9.58;100.00;67832.97;4979565;28;20141;-83
2022/12/29 01:47:44;;;;;;;5.60;5.10;;;;;;;;;;5015454;28;20060;-84
2022/12/29 01:50:29;;;;;;;5.40;4.90;;;;;;;9.50;100.00;67821.25;4998687;28;20073;-83
2022/12/29 01:52:59;;;;;;;5.97;5.47;;;;;;;9.51;100.00;67824.47;4999073;28;20132;-84
2022/12/29 01:55:26;;;;;;;5.60;5.00;;;;;;;;;;4988214;28;20062;-83
2022/12/29 01:57:54;;;;;;;4.63;4.22;;;;;;;9.52;100.00;67826.16;4993935;28;20549;-84
2022/12/29 02:00:19;;;;;;;4.95;4.55;;;;;;;;;;4987971;28;20042;-82
2022/12/29 02:02:50;;;;;;;5.65;5.13;;;;;;;9.57;100.00;67831.25;4992026;28;20645;-83
2022/12/29 02:05:39;;;;;;;5.65;5.07;;;;;;;9.60;100.00;67834.66;4994515;28;20505;-84
2022/12/29 02:08:05;;;;;;;;;;;;;;;9.61;100.00;67833.72;4988880;28;20416;-83
2022/12/29 02:10:34;;;;;;;4.88;4.47;;;;;;;9.57;100.00;67831.81;4984746;28;19914;-84
2022/12/29 02:12:59;;;;;;;4.50;4.20;;;;;;;9.60;100.00;67835.22;4988236;28;20062;-83
2022/12/29 02:15:53;;;;;;;5.00;4.60;;;;;;;9.65;100.00;67838.25;4991983;28;20527;-83
2022/12/29 02:18:32;;;;;;;4.50;4.15;;;;;;;9.68;100.00;67841.06;4980489;28;20034;-84
2022/12/29 02:21:17;;;;;;;;;;;;;;;9.69;100.00;67842.75;4990774;28;20073;-82
2022/12/29 02:24:04;;;;;;;4.80;4.40;;;;;;;9.65;100.00;67838.25;4980053;28;19985;-83
2022/12/29 02:26:48;;;;;;;4.18;3.78;;;;;;;9.67;100.00;67840.50;4969648;28;20533;-82
2022/12/29 02:29:41;;;;;;;3.85;3.47;;;;;;;9.71;100.00;67847.13;4975008;28;20502;-82
2022/12/29 02:32:10;;;;;;;4.07;3.20;;;;;;;;;;4980990;28;20062;-82
2022/12/29 02:34:54;;;;;;;4.50;3.47;;;;;;;9.74;100.00;67849.97;4971501;28;20046;-83
2022/12/29 02:37:29;;;;;;;3.15;2.65;;;;;;;9.76;100.00;67852.81;4988305;28;20129;-82
2022/12/29 02:40:05;;;;;;;3.40;2.80;;;;;;;;;;4980614;28;20049;-82
2022/12/29 02:42:35;;;;;;;3.35;2.45;;;;;;;9.82;100.00;67853.72;4979209;28;20050;-82
2022/12/29 02:45:20;;;;;;;2.40;2.15;;;;;;;9.88;100.00;67863.75;4984598;28;20047;-82
2022/12/29 02:47:49;;;;;;;2.42;2.10;;;;;;;9.92;100.00;67870.38;4977698;28;20050;-83
2022/12/29 02:50:17;;;;;;;3.35;2.00;;;;;;;9.93;100.00;67872.09;4977463;28;20039;-82
2022/12/29 02:52:49;;;;;;;1.90;1.40;;;;;;;9.93;100.00;67868.88;5002161;28;20120;-82
2022/12/29 02:55:15;;;;;;;2.13;1.33;;;;;;;9.97;100.00;67876.06;4970975;28;20037;-83
2022/12/29 02:57:40;;;;;;;1.83;1.23;;;;;;;10.02;100.00;67879.06;4972057;28;20035;-82
2022/12/29 03:00:10;;;;;;;2.95;1.40;;;;;;;10.04;100.00;67880.75;4978524;28;20113;-82
2022/12/29 03:02:44;;;;;;;1.75;1.10;;;;;;;10.04;100.00;67881.34;5001717;28;20080;-82
2022/12/29 03:05:19;;;;;;;1.90;0.90;;;;;;;10.06;100.00;67886.25;4988676;28;20096;-82
2022/12/29 03:08:15;;;;;;;1.58;0.98;;;;;;;10.09;100.00;67887.00;5005161;28;20048;-82
2022/12/29 03:11:01;;;;;;;2.40;0.90;;;;;;;10.12;100.00;67889.84;5018826;28;20137;-82
2022/12/29 03:16:34;;;;;;;2.53;0.93;;;;;;;10.14;100.00;67895.34;4988901;28;20093;-82
2022/12/29 03:19:07;;;;;;;2.13;0.88;;;;;;;10.17;100.00;67898.16;4977612;28;20696;-83
2022/12/29 03:24:29;;;;;;;1.23;0.73;;;;;;;10.24;100.00;67905.53;4989135;28;20092;-84
2022/12/29 03:26:58;;;;;;;3.13;1.00;;;;;;;10.29;100.00;67911.25;4997047;28;20132;-82
2022/12/29 03:29:25;;;;;;;4.75;1.00;;;;;;;10.32;100.00;67915.19;5006144;28;20037;-83
2022/12/29 03:31:53;;;;;;;3.10;0.90;;;;;;;10.33;100.00;67913.69;4997622;28;20483;-84
2022/12/29 03:34:21;;;;;;;4.03;0.90;;;;;;;10.36;100.00;67919.19;4986039;28;20057;-84
2022/12/29 03:37:04;;;;;;;1.98;0.90;;;;;;;10.37;100.00;67920.31;4989293;28;20379;-83
2022/12/29 03:39:29;;;;;;;1.95;0.65;;;;;;;;;;4997252;28;20512;-83
2022/12/29 03:41:59;;;;;;;1.75;0.75;;;;;;;10.42;100.00;67926.00;4985140;28;20054;-83
2022/12/29 03:44:39;;;;;;;3.40;0.80;;;;;;;10.43;100.00;67927.13;4983495;28;20117;-81
2022/12/29 03:47:06;;;;;;;1.85;0.90;;;;;;;10.42;100.00;67926.00;4983127;28;20042;-82
2022/12/29 03:49:31;;;;;;;2.28;1.20;;;;;;;10.42;100.00;67925.44;4985133;28;20037;-84
2022/12/29 03:51:56;;;;;;;4.78;1.10;;;;;;;10.44;100.00;67927.69;4980766;28;20399;-84
2022/12/29 03:54:22;;;;;;;2.08;0.70;;;;;;;;;;4985065;28;20046;-82
2022/12/29 03:56:47;;;;;;;2.67;1.08;;;;;;;10.44;100.00;67927.69;4984843;28;20406;-82
2022/12/29 03:59:12;;;;;;;3.13;0.82;;;;;;;10.44;100.00;67927.69;4982947;28;20057;-84
2022/12/29 04:01:38;;;;;;;3.47;0.95;;;;;;;10.45;100.00;67928.84;4978766;28;20045;-83
2022/12/29 04:04:03;;;;;;;2.13;0.80;;;;;;;10.45;100.00;67926.16;4970760;28;20085;-84
2022/12/29 04:06:29;;;;;;;2.63;0.90;;;;;;;10.44;100.00;67922.94;4984933;28;20042;-84
2022/12/29 04:08:54;;;;;;;2.97;0.80;;;;;;;10.44;100.00;67928.25;4989228;28;20041;-83
2022/12/29 04:11:21;;;;;;;2.22;0.70;;;;;;;10.45;100.00;67928.84;4989008;28;20046;-85
2022/12/29 04:13:46;;;;;;;2.90;0.90;;;;;;;10.45;100.00;67926.72;4989869;28;20089;-83
2022/12/29 04:16:12;;;;;;;4.32;0.82;;;;;;;10.44;100.00;67928.25;4989983;28;20046;-84
2022/12/29 04:18:37;;;;;;;2.65;0.80;;;;;;;10.43;100.00;67927.13;4991676;28;20050;-84
2022/12/29 04:21:03;;;;;;;1.67;0.80;;;;;;;10.40;100.00;67923.72;5009848;28;20577;-83
2022/12/29 04:23:31;;;;;;;3.33;0.70;;;;;;;10.38;100.00;67919.34;5012902;28;20048;-83
2022/12/29 04:25:56;;;;;;;1.23;0.60;;;;;;;10.42;100.00;67922.78;5008001;28;20081;-85
2022/12/29 04:28:22;;;;;;;1.95;1.00;;;;;;;10.40;100.00;67923.72;4972159;28;20086;-84
2022/12/29 04:30:47;;;;;;;3.13;0.70;;;;;;;10.34;100.00;67911.59;4999814;28;20109;-84
2022/12/29 04:33:13;;;;;;;3.97;1.45;;;;;;;10.24;100.00;67903.47;4992935;28;20038;-82
2022/12/29 04:35:39;;;;;;;3.22;1.15;;;;;;;10.09;100.00;67889.66;4990916;28;20042;-83
2022/12/29 04:38:04;;;;;;;1.95;0.80;;;;;;;10.05;100.00;67882.47;4988388;28;20104;-84
2022/12/29 04:40:29;;;;;;;3.30;0.80;;;;;;;9.99;100.00;67875.09;5008383;28;20085;-82
2022/12/29 04:42:55;;;;;;;2.33;0.77;;;;;;;9.97;100.00;67875.50;5005255;28;20039;-82
2022/12/29 04:45:23;;;;;;;3.33;1.20;;;;;;;9.94;100.00;67872.66;4999662;28;20096;-83
2022/12/29 04:47:49;;;;;;;3.00;0.85;;;;;;;9.90;100.00;67865.47;4983308;28;20043;-81
2022/12/29 04:50:14;;;;;;;4.20;1.10;;;;;;;9.86;100.00;67858.25;4995676;28;20691;-83
2022/12/29 04:52:39;;;;;;;1.65;0.70;;;;;;;9.83;100.00;67860.16;5005873;28;20047;-81
2022/12/29 04:55:06;;;;;;;3.45;1.08;;;;;;;9.80;100.00;67852.03;4992576;28;20046;-82
2022/12/29 04:57:31;;;;;;;2.67;0.82;;;;;;;;;;4993186;28;20096;-81
2022/12/29 04:59:56;;;;;;;2.60;1.00;;;;;;;9.74;100.00;67849.97;4996317;28;20498;-82
2022/12/29 05:02:21;;;;;;;6.82;1.70;;;;;;;;;;4990880;28;20030;-81
2022/12/29 05:04:47;;;;;;;3.95;1.05;;;;;;;9.65;100.00;67840.34;4990195;28;20050;-81
2022/12/29 05:07:13;;;;;;;4.07;1.25;;;;;;;9.63;100.00;67833.31;4982933;28;20085;-80
2022/12/29 05:09:38;;;;;;;3.08;0.90;;;;;;;9.59;100.00;67834.09;4985711;28;20042;-80
2022/12/29 05:12:04;;;;;;;5.13;1.27;;;;;;;9.56;100.00;67830.69;4986754;28;20761;-82
2022/12/29 05:14:29;;;;;;;3.97;1.27;;;;;;;9.53;100.00;67826.72;4979334;28;20706;-81
2022/12/29 05:16:54;;;;;;;2.30;1.00;;;;;;;9.48;100.00;67818.97;4988850;28;20494;-80
2022/12/29 05:19:22;;;;;;;4.68;1.38;;;;;;;9.41;100.00;67814.25;4990409;28;20125;-83
2022/12/29 05:21:48;;;;;;;3.78;1.00;;;;;;;9.36;100.00;67808.59;4989432;28;20081;-82
2022/12/29 05:24:13;;;;;;;2.25;0.80;;;;;;;9.33;100.00;67804.63;4988820;28;20070;-81
2022/12/29 05:26:39;;;;;;;2.95;0.90;;;;;;;9.30;100.00;67795.91;4981634;28;20137;-80
2022/12/29 05:29:04;;;;;;;3.05;0.90;;;;;;;9.25;100.00;67796.69;4987979;28;20113;-81
2022/12/29 05:31:30;;;;;;;2.40;0.90;;;;;;;9.21;100.00;67792.16;4996763;28;20092;-81
2022/12/29 05:33:55;;;;;;;2.65;0.93;;;;;;;;;;4990470;28;20058;-81
2022/12/29 05:36:20;;;;;;;1.92;0.65;;;;;;;9.21;100.00;67791.59;4989319;28;20495;-82
2022/12/29 05:38:46;;;;;;;1.85;0.73;;;;;;;9.17;100.00;67784.97;4985936;28;20423;-81
2022/12/29 05:41:11;;;;;;;2.17;0.90;;;;;;;9.17;100.00;67787.59;4981007;28;20121;-81
2022/12/29 05:43:36;;;;;;;3.03;0.90;;;;;;;9.18;100.00;67788.75;4988575;28;20046;-81
2022/12/29 05:46:03;;;;;;;2.38;0.88;;;;;;;9.16;100.00;67786.47;4988750;28;20042;-80
2022/12/29 05:48:28;;;;;;;2.85;0.95;;;;;;;9.17;100.00;67781.75;4983490;28;20089;-81
2022/12/29 05:50:54;;;;;;;2.58;0.98;;;;;;;9.16;100.00;67781.19;4994058;28;20034;-81
2022/12/29 05:53:20;;;;;;;3.47;1.40;;;;;;;9.14;100.00;67784.22;4990343;28;20046;-82
2022/12/29 05:55:48;;;;;;;4.65;0.90;;;;;;;9.11;100.00;67778.16;4989868;28;20649;-82
2022/12/29 05:58:15;;;;;;;1.95;0.90;;;;;;;9.09;100.00;67773.25;4987057;28;20038;-81
2022/12/29 06:00:40;;;;;;;3.08;1.00;;;;;;;9.09;100.00;67778.56;4985785;28;20049;-81
2022/12/29 06:03:05;;;;;;;2.38;1.10;;;;;;;9.13;100.00;67780.44;4980328;28;20043;-80
2022/12/29 06:05:31;;;;;;;2.53;1.00;;;;;;;9.14;100.00;67784.22;4978832;28;20038;-81
2022/12/29 06:07:56;;;;;;;2.75;1.55;;;;;;;9.18;100.00;67788.19;4978958;28;20113;-82
2022/12/29 06:10:22;;;;;;;5.43;1.00;;;;;;;9.22;100.00;67790.63;4990384;28;20132;-82
2022/12/29 06:12:47;;;;;;;6.78;1.25;;;;;;;9.23;100.00;67791.19;4990341;28;20042;-81
2022/12/29 06:15:13;;;;;;;3.83;1.25;;;;;;;9.22;100.00;67793.28;4987523;28;20049;-81
2022/12/29 06:17:39;;;;;;;4.57;0.93;;;;;;;9.23;100.00;67791.75;4982259;28;20049;-81
2022/12/29 06:20:05;;;;;;;6.13;1.00;;;;;;;9.20;100.00;67788.34;4989489;28;20046;-80
2022/12/29 06:22:30;;;;;;;7.18;1.30;;;;;;;;;;4984515;28;20085;-81
2022/12/29 06:24:55;;;;;;;2.83;1.00;;;;;;;9.18;100.00;67785.53;4979183;28;20065;-82
2022/12/29 06:27:21;;;;;;;6.38;1.20;;;;;;;9.19;100.00;67789.31;4983781;28;20042;-82
2022/12/29 06:29:46;;;;;;;7.82;1.30;;;;;;;9.13;100.00;67783.09;4988340;28;20399;-82
2022/12/29 06:32:11;;;;;;;5.78;1.05;;;;;;;9.11;100.00;67778.16;4985792;28;20042;-81
2022/12/29 06:34:37;;;;;;;8.45;1.27;;;;;;;;;;4987283;28;20096;-80
2022/12/29 06:37:03;;;;;;;6.72;1.30;;;;;;;9.04;100.00;67772.88;4988615;28;20682;-81
2022/12/29 06:39:28;;;;;;;5.78;1.10;;;;;;;8.99;100.00;67767.78;4983046;28;20582;-80
2022/12/29 06:41:54;;;;;;;5.78;1.00;;;;;;;9.00;100.00;67766.25;4976402;28;20047;-81
2022/12/29 06:44:21;;;;;;;5.32;1.15;;;;;;;8.94;100.00;67762.13;4971763;28;20501;-80
2022/12/29 06:46:46;;;;;;;6.40;1.15;;;;;;;8.96;100.00;67769.13;4989256;28;20066;-81
2022/12/29 06:49:12;;;;;;;3.97;0.80;;;;;;;8.91;100.00;67758.72;4988417;28;20781;-81
2022/12/29 06:51:37;;;;;;;2.90;0.80;;;;;;;8.93;100.00;67760.41;5008002;28;20100;-81
2022/12/29 06:54:02;;;;;;;5.32;0.73;;;;;;;8.91;100.00;67758.72;4996032;28;20051;-82
2022/12/29 06:56:28;;;;;;;3.47;0.98;;;;;;;8.92;100.00;67759.28;4987886;28;20064;-81
2022/12/29 06:58:53;;;;;;;2.63;0.73;;;;;;;8.91;100.00;67758.16;4982440;28;20078;-81
2022/12/29 07:01:18;;;;;;;3.33;1.10;;;;;;;8.91;100.00;67758.16;4989305;28;20498;-81
2022/12/29 07:03:44;;;;;;;3.75;0.90;;;;;;;8.89;100.00;67756.47;4988450;28;20565;-80
2022/12/29 07:06:09;;;;;;;3.90;0.90;;;;;;;8.92;100.00;67756.63;4988347;28;20061;-81
2022/12/29 07:08:35;;;;;;;5.15;1.00;;;;;;;8.92;100.00;67759.28;4984592;28;20042;-81
2022/12/29 07:11:00;;;;;;;4.03;0.85;;;;;;;8.90;100.00;67757.03;4986227;28;20039;-81
2022/12/29 07:13:25;;;;;;;4.47;1.05;;;;;;;8.90;100.00;67757.03;4981430;28;20517;-81
2022/12/29 07:15:51;;;;;;;5.40;1.00;;;;;;;8.89;100.00;67753.81;4986212;28;20062;-81
2022/12/29 07:18:16;;;;;;;5.93;1.20;;;;;;;8.91;100.00;67758.16;4983660;28;20092;-81
2022/12/29 07:20:41;;;;;;;5.13;1.00;;;;;;;;;;4991522;28;20980;-81
2022/12/29 07:23:07;;;;;;;4.68;1.02;;;;;;;8.98;100.00;67763.44;4990493;28;20446;-81
2022/12/29 07:25:32;;;;;;;5.53;1.17;;;;;;;9.01;100.00;67769.50;4987881;28;20081;-82
2022/12/29 07:27:58;;;;;;;4.13;0.77;;;;;;;9.06;100.00;67775.13;5006415;28;20103;-81
2022/12/29 07:30:23;;;;;;;2.95;0.80;;;;;;;9.07;100.00;67775.72;4997350;28;20042;-81
2022/12/29 07:32:48;;;;;;;4.10;1.27;;;;;;;;;;4995034;28;20050;-81
2022/12/29 07:35:14;;;;;;;5.55;0.80;;;;;;;9.17;100.00;67782.31;5002888;28;20042;-80
2022/12/29 07:37:39;;;;;;;2.45;1.10;;;;;;;9.22;100.00;67787.41;5005344;28;20066;-82
2022/12/29 07:40:05;;;;;;;4.82;1.13;;;;;;;9.27;100.00;67798.94;4998728;28;20042;-82
2022/12/29 07:42:31;;;;;;;5.32;0.90;;;;;;;9.24;100.00;67795.56;4996322;28;20069;-82
2022/12/29 07:44:56;;;;;;;4.75;1.27;;;;;;;9.26;100.00;67797.81;4997829;28;20416;-82
2022/12/29 07:47:22;;;;;;;4.03;0.88;;;;;;;9.26;100.00;67797.25;4989017;28;20062;-82
2022/12/29 07:49:47;;;;;;;4.60;1.10;;;;;;;9.24;100.00;67795.56;4992036;28;20034;-80
2022/12/29 07:52:12;;;;;;;4.65;0.90;;;;;;;;;;4992898;28;20130;-83
2022/12/29 07:54:38;;;;;;;5.05;1.30;;;;;;;9.24;100.00;67795.56;4986795;28;20050;-82
2022/12/29 07:57:04;;;;;;;5.03;1.30;;;;;;;9.23;100.00;67794.41;4984207;28;20506;-82
2022/12/29 07:59:30;;;;;;;5.43;0.90;;;;;;;9.26;100.00;67797.81;4988870;28;20502;-81
2022/12/29 08:01:55;;;;;;;7.18;1.13;;;;;;;;;;4987149;28;21719;-81
2022/12/29 08:04:20;;;;;;;3.20;0.88;;;;;;;;;;4983422;28;20042;-81
2022/12/29 08:06:46;;;;;;;5.43;1.02;;;;;;;9.36;100.00;67802.72;4976046;28;20042;-80
2022/12/29 08:09:13;;;;;;;5.50;1.42;;;;;;;9.36;100.00;67808.03;4982964;28;20604;-81
2022/12/29 08:11:40;;;;;;;5.05;0.90;;;;;;;;;;4981490;28;20042;-81
2022/12/29 08:14:05;;;;;;;4.40;1.00;;;;;;;9.36;100.00;67805.94;4980144;28;20490;-82
2022/12/29 08:16:31;;;;;;;4.88;0.80;;;;;;;9.37;100.00;67809.16;4984628;28;20049;-82
2022/12/29 08:18:56;;;;;;;4.18;0.93;;;;;;;9.37;100.00;67809.72;4986217;28;20123;-80
2022/12/29 08:21:21;;;;;;;6.82;1.50;;;;;;;;;;4988871;28;20034;-81
2022/12/29 08:23:47;;;;;;;5.18;1.13;;;;;;;9.42;100.00;67809.50;4974828;28;20582;-81
2022/12/29 08:26:13;;;;;;;4.88;1.33;;;;;;;9.43;100.00;67815.94;4967796;28;20039;-81
2022/12/29 08:28:38;;;;;;;6.03;1.90;;;;;;;9.43;100.00;67813.28;4970981;28;20038;-81
2022/12/29 08:31:04;;;;;;;5.53;1.73;;;;;;;9.47;100.00;67825.81;4977245;28;20049;-80
2022/12/29 08:33:29;;;;;;;6.10;1.38;;;;;;;;;;4976361;28;20056;-80
2022/12/29 08:36:02;;;;;;;5.07;1.00;;;;;;;9.49;100.00;67822.75;4978865;28;20051;-80
2022/12/29 08:38:28;;;;;;;4.53;1.40;;;;;;;9.50;100.00;67821.25;4984283;28;20044;-81
2022/12/29 08:40:54;;;;;;;7.00;1.20;;;;;;;9.52;100.00;67820.28;4986822;28;20425;-80
2022/12/29 08:43:19;;;;;;;8.15;1.48;;;;;;;;;;4982521;28;20047;-81
2022/12/29 08:45:45;;;;;;;4.43;1.27;;;;;;;;;;4972866;28;20049;-81
2022/12/29 08:48:10;;;;;;;4.47;1.30;;;;;;;9.64;100.00;67837.13;4982619;28;20059;-80
2022/12/29 08:50:35;;;;;;;8.60;1.70;;;;;;;9.66;100.00;67847.34;4996869;28;20045;-80
2022/12/29 08:53:01;;;;;;;5.68;1.63;;;;;;;9.65;99.94;67840.91;4979107;28;20073;-81
2022/12/29 08:55:26;;;;;;;5.53;1.17;;;;;;;;;;4985592;28;20046;-81
2022/12/29 08:57:51;;;;;;;8.02;1.65;;;;;;;9.66;98.77;67836.72;4976316;28;20551;-81
2022/12/29 09:00:17;;;;;;;4.30;1.00;;;;;;;9.67;98.57;67840.50;4971954;28;20584;-81
2022/12/29 09:02:43;;;;;;;5.13;1.10;;;;;;;;;;4990769;28;20049;-80
2022/12/29 09:05:09;;;;;;;7.80;1.95;;;;;;;9.69;98.03;67842.75;4985895;28;20100;-80
2022/12/29 09:07:35;;;;;;;8.35;1.80;;;;;;;9.68;97.20;67844.28;4994774;28;20395;-80
2022/12/29 09:10:00;;;;;;;4.63;1.48;;;;;;;9.70;97.33;67846.00;4985869;28;20038;-80
2022/12/29 09:12:26;;;;;;;8.80;1.50;;;;;;;9.67;97.83;67840.50;4987737;28;20030;-80
2022/12/29 09:14:51;;;;;;;6.43;1.35;;;;;;;;;;4986959;28;20054;-79
2022/12/29 09:20:01;;;;;;;6.28;1.52;;;;;;;9.65;96.89;67837.69;4978163;28;20155;-81
2022/12/29 09:22:26;;;;;;;9.75;2.55;;;;;;;9.66;96.68;67842.03;4990485;28;20125;-82
2022/12/29 09:24:51;;;;;;;6.03;1.73;;;;;;;9.68;97.02;67838.41;4988524;28;20547;-81
2022/12/29 09:27:17;;;;;;;8.82;1.88;;;;;;;9.69;96.88;67844.84;4989001;28;20050;-81
2022/12/29 09:29:42;;;;;;;11.50;2.28;;;;;;;9.70;96.97;67851.88;5001204;28;20046;-82
2022/12/29 09:32:07;;;;;;;4.50;1.25;;;;;;;9.73;95.94;67849.41;4997155;28;20034;-81
2022/12/29 09:34:33;;;;;;;7.43;1.52;;;;;;;9.77;96.73;67853.94;4996025;28;20141;-80
2022/12/29 09:36:58;;;;;;;7.43;1.60;;;;;;;;;;4999291;28;20073;-82
2022/12/29 09:39:23;;;;;;;3.65;1.60;;;;;;;9.85;94.91;67859.78;4995783;28;20085;-81
2022/12/29 09:42:09;;;;;;;6.40;1.20;;;;;;;9.92;94.08;67875.69;4989956;28;20417;-81
2022/12/29 09:44:58;;;;;;;6.80;1.30;;;;;;;9.94;93.63;67872.66;4986952;28;20034;-80
2022/12/29 09:47:24;;;;;;;;;;;;;;;9.97;91.89;67875.50;4979266;28;20411;-79
2022/12/29 09:49:55;;;;;;;6.20;1.73;;;;;;;9.91;92.62;67866.59;4986207;28;19953;-81
2022/12/29 09:52:25;;;;;;;7.05;1.20;;;;;;;9.97;92.12;67873.41;4990688;28;20047;-79
2022/12/29 09:54:56;;;;;;;6.90;1.33;;;;;;;10.00;91.85;67879.44;4988760;28;20422;-80
2022/12/29 09:57:26;;;;;;;8.23;1.40;;;;;;;10.04;91.11;67888.72;4983160;28;20053;-80
2022/12/29 09:59:57;;;;;;;9.55;1.98;;;;;;;10.04;91.83;67884.00;4985582;28;20045;-80
2022/12/29 10:02:32;;;;;;;6.93;1.58;;;;;;;9.95;94.48;67873.78;4994166;28;20091;-79
2022/12/29 10:04:57;;;;;;;7.30;1.80;;;;;;;9.85;96.75;67863.00;4996535;28;20039;-81
2022/12/29 10:07:44;;;;;;;11.02;2.20;;;;;;;9.78;98.20;67854.50;4990815;28;20034;-80
2022/12/29 10:10:20;;;;;;;4.13;1.08;;;;;;;9.72;95.86;67848.25;5001659;28;20038;-80
2022/12/29 10:13:16;;;;;;;7.47;1.33;;;;;;;9.77;96.62;67853.38;4999628;28;20038;-82
2022/12/29 10:15:41;;;;;;;6.82;1.30;;;;;;;;;;5002260;28;20038;-79
2022/12/29 10:18:28;;;;;;;3.67;0.90;;;;;;;9.86;95.51;67863.56;4993670;28;20061;-82
2022/12/29 10:21:01;;;;;;;6.35;1.45;;;;;;;9.89;94.80;67864.88;5000644;28;20273;-81
2022/12/29 10:23:40;;;;;;;7.45;1.88;;;;;;;9.96;94.01;67874.38;4985095;28;20065;-82
2022/12/29 10:26:09;;;;;;;8.05;1.60;;;;;;;;;;4988314;28;20046;-81
2022/12/29 10:28:49;;;;;;;9.68;1.92;;;;;;;10.07;94.86;67884.75;4988166;28;20520;-81
2022/12/29 10:31:33;;;;;;;6.93;1.80;;;;;;;10.08;94.14;67885.88;4987481;28;20042;-80
2022/12/29 10:34:00;;;;;;;7.15;1.80;;;;;;;;;;4986797;28;20048;-80
2022/12/29 10:36:41;;;;;;;7.43;1.80;;;;;;;10.06;96.49;67886.25;4985319;28;20073;-81
2022/12/29 10:39:22;;;;;;;6.07;1.73;;;;;;;;;;4985634;28;20041;-81
2022/12/29 10:41:59;;;;;;;6.50;1.45;;;;;;;9.99;97.12;67877.75;4999601;28;20053;-81
2022/12/29 10:44:28;;;;;;;6.50;1.48;;;;;;;9.96;97.67;67874.94;4986076;28;20088;-80
2022/12/29 10:47:00;;;;;;;8.50;1.70;;;;;;;9.96;97.84;67880.25;4986590;28;20517;-81
2022/12/29 10:49:28;;;;;;;8.52;1.58;;;;;;;9.95;98.07;67873.78;4987503;28;20042;-81
2022/12/29 10:51:54;;;;;;;3.20;0.98;;;;;;;;;;4986433;28;20088;-80
2022/12/29 10:54:36;;;;;;;8.65;1.60;;;;;;;9.91;98.56;67869.25;4984407;28;20117;-81
2022/12/29 10:57:20;;;;;;;6.32;1.17;;;;;;;9.87;99.62;67859.97;4986827;28;20042;-80
2022/12/29 10:59:45;;;;;;;6.97;1.38;;;;;;;9.84;100.00;67866.63;4999672;28;20057;-81
2022/12/29 11:02:10;;;;;;;5.40;1.40;;;;;;;9.81;100.00;67857.91;4986126;28;20042;-81
2022/12/29 11:05:15;;;;;;;8.18;1.52;;;;;;;9.77;100.00;67848.63;4986774;28;20042;-82
2022/12/29 11:07:41;;;;;;;6.43;1.55;;;;;;;9.73;100.00;67846.75;4985749;28;20096;-80
2022/12/29 11:10:29;;;;;;;6.68;1.35;;;;;;;9.69;100.00;67844.84;4984937;28;20514;-81
2022/12/29 11:13:11;;;;;;;6.97;1.43;;;;;;;9.66;100.00;67838.81;5002298;28;20073;-80
2022/12/29 11:15:50;;;;;;;7.18;2.50;;;;;;;9.65;100.00;67840.91;4988060;28;20275;-80
2022/12/29 11:18:21;;;;;;;4.88;1.27;;;;;;;9.57;100.00;67829.16;4984529;28;20100;-80
2022/12/29 11:20:48;;;;;;;5.47;1.60;;;;;;;9.56;100.00;67827.47;5000236;28;20044;-80
2022/12/29 11:23:30;;;;;;;9.55;1.88;;;;;;;9.53;100.00;67827.31;4987852;28;20129;-81
2022/12/29 11:26:16;;;;;;;3.92;1.13;;;;;;;9.48;100.00;67821.63;5001098;28;20131;-81
2022/12/29 11:28:47;;;;;;;5.32;1.10;;;;;;;9.43;100.00;67815.94;4982815;28;20135;-82
2022/12/29 11:31:17;;;;;;;6.32;1.30;;;;;;;9.40;100.00;67813.13;4989620;28;20034;-80
2022/12/29 11:33:43;;;;;;;8.20;2.13;;;;;;;9.34;100.00;67806.31;4996628;28;20144;-80
2022/12/29 11:36:20;;;;;;;7.88;1.55;;;;;;;9.24;100.00;67792.91;4996943;28;20052;-80
2022/12/29 11:38:52;;;;;;;7.63;1.52;;;;;;;9.17;100.00;67787.59;4997624;28;20052;-81
2022/12/29 11:41:23;;;;;;;6.65;1.35;;;;;;;9.14;100.00;67781.56;4995268;28;20038;-81
2022/12/29 11:43:49;;;;;;;7.03;1.60;;;;;;;9.15;100.00;67785.34;5008201;28;20066;-82
2022/12/29 11:46:16;;;;;;;7.75;2.35;;;;;;;;;;4986637;28;20054;-82
2022/12/29 11:48:42;;;;;;;6.13;1.63;;;;;;;9.14;100.00;67783.66;4986300;28;20043;-81
2022/12/29 11:51:09;;;;;;;7.00;2.33;;;;;;;9.15;100.00;67784.78;4979408;28;20042;-81
2022/12/29 11:53:46;;;;;;;3.95;1.30;;;;;;;9.19;100.00;67789.88;4986094;28;20089;-82
2022/12/29 11:56:32;;;;;;;5.80;1.48;;;;;;;9.23;100.00;67791.75;4982482;28;20580;-80
2022/12/29 11:58:57;;;;;;;6.22;1.90;;;;;;;;;;4994385;28;20481;-81
2022/12/29 12:01:33;;;;;;;7.82;1.98;;;;;;;9.30;100.00;67801.22;4979656;28;20039;-83
2022/12/29 12:04:03;;;;;;;8.73;1.95;;;;;;;;;;4983316;28;20038;-81
2022/12/29 12:06:30;;;;;;;8.10;1.88;;;;;;;;;;4979568;28;20129;-82
2022/12/29 12:09:01;;;;;;;8.40;1.83;;;;;;;9.38;100.00;67807.63;4984447;28;20038;-83
2022/12/29 12:11:45;;;;;;;7.38;1.70;;;;;;;9.41;100.00;67813.69;4986080;28;20039;-80
2022/12/29 12:14:17;;;;;;;9.02;1.95;;;;;;;;;;4984144;28;20050;-82
2022/12/29 12:17:06;;;;;;;5.60;1.48;;;;;;;9.49;100.00;67822.75;4983646;28;20042;-82
2022/12/29 12:19:43;;;;;;;10.35;1.98;;;;;;;;;;4984157;28;20041;-80
2022/12/29 12:22:31;;;;;;;5.05;1.85;;;;;;;9.55;100.00;67834.31;4983591;28;20034;-80
2022/12/29 12:25:11;;;;;;;7.53;1.85;;;;;;;9.53;100.00;67827.31;4982599;28;20076;-82
2022/12/29 12:28:02;;;;;;;4.07;1.27;;;;;;;9.55;100.00;67829.56;4984036;28;20070;-82
2022/12/29 12:30:36;;;;;;;7.70;1.98;;;;;;;9.60;100.00;67829.91;4959953;28;20062;-82
2022/12/29 12:33:18;;;;;;;3.83;1.38;;;;;;;9.59;100.00;67834.09;4958813;28;20121;-80
2022/12/29 12:35:45;;;;;;;11.23;2.00;;;;;;;;;;4963226;28;20037;-82
2022/12/29 12:38:14;;;;;;;11.10;2.60;;;;;;;;;;4968251;28;20054;-80
2022/12/29 12:40:39;;;;;;;7.30;1.87;;;;;;;9.61;100.00;67836.38;4977653;28;20043;-78
2022/12/29 12:43:36;;;;;;;6.00;1.90;;;;;;;9.58;100.00;67832.97;4981624;28;20314;-81